Time;durP1;ratioP1;P1;durP2;ratioP2;P2;SDS_P1;SDS_P2;PMS_P1;PMS_P2;Temp;Humidity;BMP_temperature;BMP_pressure;BME280_temperature;BME280_humidity;BME280_pressure;Samples;Min_cycle;Max_cycle;Signal;HPM_P1;HPM_P2
2022/08/17 00:01:05;;;;;;;20.23;18.13;;;21.40;99.90;;;;;;4972366;28;20568;-49
2022/08/17 00:03:37;;;;;;;19.90;17.50;;;21.40;99.90;;;;;;4972287;28;20133;-46
2022/08/17 00:06:10;;;;;;;20.98;18.67;;;21.40;99.90;;;;;;4972286;28;20383;-47
2022/08/17 00:09:00;;;;;;;20.33;18.38;;;21.30;99.90;;;;;;4972250;28;20130;-51
2022/08/17 00:11:36;;;;;;;21.00;18.80;;;21.20;99.90;;;;;;4954712;28;20046;-50
2022/08/17 00:14:17;;;;;;;20.40;18.35;;;21.20;99.90;;;;;;4972356;28;20039;-51
2022/08/17 00:16:49;;;;;;;22.15;19.92;;;21.10;99.90;;;;;;4972286;28;20038;-48
2022/08/17 00:19:21;;;;;;;21.20;19.13;;;21.10;99.90;;;;;;4971581;28;20042;-47
2022/08/17 00:21:48;;;;;;;21.10;19.10;;;21.10;99.90;;;;;;4972161;28;20039;-48
2022/08/17 00:24:15;;;;;;;22.83;20.50;;;21.00;99.90;;;;;;4971633;28;20509;-46
2022/08/17 00:26:41;;;;;;;22.17;19.98;;;20.90;99.90;;;;;;4971766;28;20057;-48
2022/08/17 00:29:07;;;;;;;24.17;21.77;;;20.80;99.90;;;;;;4971984;28;20419;-47
2022/08/17 00:31:34;;;;;;;24.17;21.60;;;20.90;99.90;;;;;;4972038;28;20023;-50
2022/08/17 00:34:00;;;;;;;23.60;21.35;;;20.80;99.90;;;;;;4971705;28;20548;-45
2022/08/17 00:36:26;;;;;;;24.02;21.60;;;20.80;99.90;;;;;;4971874;28;20081;-47
2022/08/17 00:38:52;;;;;;;24.55;22.08;;;20.70;99.90;;;;;;4971291;28;20062;-47
2022/08/17 00:41:22;;;;;;;24.27;21.80;;;20.70;99.90;;;;;;4971241;28;20035;-47
2022/08/17 00:43:53;;;;;;;24.98;22.48;;;20.60;99.90;;;;;;4971852;28;20498;-49
2022/08/17 00:46:27;;;;;;;25.20;22.73;;;20.60;99.90;;;;;;4971921;28;20042;-50
2022/08/17 00:48:53;;;;;;;24.67;21.77;;;20.60;99.90;;;;;;4970935;28;20078;-47
2022/08/17 00:51:45;;;;;;;25.55;22.55;;;20.60;99.90;;;;;;4959088;28;20050;-47
2022/08/17 00:54:24;;;;;;;23.90;21.55;;;20.60;99.90;;;;;;4952640;28;20550;-48
2022/08/17 00:57:07;;;;;;;23.88;21.50;;;20.60;99.90;;;;;;4952341;28;20043;-48
2022/08/17 00:59:38;;;;;;;25.10;22.58;;;20.60;99.90;;;;;;4952430;28;20093;-51
2022/08/17 01:02:05;;;;;;;25.35;22.63;;;20.60;99.90;;;;;;4952209;28;20094;-49
2022/08/17 01:04:32;;;;;;;25.52;22.92;;;20.40;99.90;;;;;;4952419;28;20043;-47
2022/08/17 01:07:00;;;;;;;26.13;23.50;;;20.40;99.90;;;;;;4952460;28;20530;-50
2022/08/17 01:09:26;;;;;;;25.38;22.83;;;20.50;99.90;;;;;;4953493;28;20043;-47
2022/08/17 01:11:52;;;;;;;26.70;23.67;;;20.40;99.90;;;;;;4951764;28;20190;-47
2022/08/17 01:14:23;;;;;;;27.40;24.67;;;20.40;99.90;;;;;;4963715;28;20126;-51
2022/08/17 01:16:51;;;;;;;28.40;25.55;;;20.50;99.90;;;;;;4956887;28;20043;-47
2022/08/17 01:19:21;;;;;;;28.10;25.17;;;20.40;99.90;;;;;;4951672;28;20391;-46
2022/08/17 01:22:01;;;;;;;28.77;25.67;;;20.40;99.90;;;;;;4952281;28;20035;-49
2022/08/17 01:24:27;;;;;;;29.73;26.73;;;20.30;99.90;;;;;;4952994;28;20043;-48
2022/08/17 01:26:53;;;;;;;29.45;26.27;;;20.40;99.90;;;;;;4951998;28;20147;-49
2022/08/17 01:29:20;;;;;;;29.90;26.90;;;20.30;99.90;;;;;;4951789;28;20071;-49
2022/08/17 01:31:55;;;;;;;30.02;27.02;;;20.40;99.90;;;;;;4952060;28;20054;-51
2022/08/17 01:34:21;;;;;;;31.60;28.15;;;20.40;99.90;;;;;;4952018;28;20035;-51
2022/08/17 01:36:48;;;;;;;31.88;28.67;;;20.50;99.90;;;;;;4951861;28;20118;-50
2022/08/17 01:39:20;;;;;;;29.98;26.98;;;20.30;99.90;;;;;;4953157;28;20039;-48
2022/08/17 01:41:50;;;;;;;31.25;27.70;;;20.40;99.90;;;;;;4971225;28;20056;-47
2022/08/17 01:44:16;;;;;;;31.20;27.90;;;20.30;99.90;;;;;;4952890;28;20085;-50
2022/08/17 01:46:41;;;;;;;30.13;27.20;;;20.30;99.90;;;;;;4952017;28;20078;-48
2022/08/17 01:49:10;;;;;;;31.45;27.98;;;20.20;99.90;;;;;;4934207;28;20058;-46
2022/08/17 01:51:36;;;;;;;32.65;29.02;;;20.20;99.90;;;;;;4959010;28;20038;-48
2022/08/17 01:54:06;;;;;;;31.77;28.45;;;20.10;99.90;;;;;;4974928;28;20050;-50
2022/08/17 01:56:35;;;;;;;31.10;27.77;;;20.20;99.90;;;;;;4956503;28;20035;-46
2022/08/17 01:59:01;;;;;;;33.08;29.52;;;20.10;99.90;;;;;;4964100;28;20114;-48
2022/08/17 02:01:30;;;;;;;30.05;27.17;;;20.10;99.90;;;;;;4974925;28;20049;-48
2022/08/17 02:03:57;;;;;;;32.78;29.15;;;20.10;99.90;;;;;;4974257;28;20038;-48
2022/08/17 02:06:22;;;;;;;31.75;28.20;;;20.10;99.90;;;;;;4974259;28;20039;-47
2022/08/17 02:08:48;;;;;;;33.92;30.33;;;20.20;99.90;;;;;;4974121;28;20034;-47
2022/08/17 02:11:18;;;;;;;32.78;29.30;;;20.30;99.90;;;;;;4974387;28;20042;-49
2022/08/17 02:13:45;;;;;;;32.97;29.48;;;20.10;99.90;;;;;;4974304;28;20050;-48
2022/08/17 02:16:12;;;;;;;34.28;30.60;;;20.20;99.90;;;;;;4974186;28;20061;-48
2022/08/17 02:18:38;;;;;;;34.58;30.98;;;20.20;99.90;;;;;;4973924;28;20035;-46
2022/08/17 02:21:04;;;;;;;35.47;31.77;;;20.20;99.90;;;;;;4974550;28;20037;-50
2022/08/17 02:23:33;;;;;;;36.35;32.45;;;20.20;99.90;;;;;;4956467;28;20058;-45
2022/08/17 02:26:00;;;;;;;33.75;30.17;;;20.30;99.90;;;;;;4974159;28;20042;-50
2022/08/17 02:28:27;;;;;;;36.75;33.08;;;20.30;99.90;;;;;;4974015;28;20035;-47
2022/08/17 02:30:53;;;;;;;35.83;32.13;;;20.30;99.90;;;;;;4973702;28;20038;-48
2022/08/17 02:33:19;;;;;;;34.33;30.63;;;20.30;99.90;;;;;;4974059;28;20038;-48
2022/08/17 02:35:45;;;;;;;37.00;32.25;;;20.20;99.90;;;;;;4974074;28;20042;-48
2022/08/17 02:38:11;;;;;;;35.55;31.80;;;20.30;99.90;;;;;;4973745;28;20038;-46
2022/08/17 02:40:39;;;;;;;35.13;31.30;;;20.10;99.90;;;;;;4974303;28;20037;-46
2022/08/17 02:43:06;;;;;;;39.25;31.85;;;20.20;99.90;;;;;;4969181;28;20130;-47
2022/08/17 02:45:33;;;;;;;38.38;33.85;;;20.20;99.90;;;;;;4954604;28;20439;-49
2022/08/17 02:47:58;;;;;;;37.15;33.25;;;20.10;99.90;;;;;;4954433;28;20046;-49
2022/08/17 02:50:25;;;;;;;39.20;32.42;;;20.10;99.90;;;;;;4954215;28;20045;-48
2022/08/17 02:52:51;;;;;;;35.00;31.42;;;20.10;99.90;;;;;;4954521;28;20043;-47
2022/08/17 02:55:21;;;;;;;36.45;32.50;;;20.00;99.90;;;;;;4954733;28;20450;-48
2022/08/17 02:57:48;;;;;;;39.78;32.58;;;20.00;99.90;;;;;;4954413;28;20395;-48
2022/08/17 03:00:28;;;;;;;34.95;31.13;;;20.00;99.90;;;;;;4954257;28;20031;-46
2022/08/17 03:02:55;;;;;;;36.30;31.10;;;20.00;99.90;;;;;;4952901;28;20118;-49
2022/08/17 03:05:24;;;;;;;35.85;32.28;;;19.90;99.90;;;;;;4954361;28;20051;-50
2022/08/17 03:07:50;;;;;;;40.08;31.52;;;19.90;99.90;;;;;;4954346;28;20027;-48
2022/08/17 03:10:16;;;;;;;35.55;31.77;;;19.90;99.90;;;;;;4954022;28;20095;-47
2022/08/17 03:12:43;;;;;;;36.35;32.55;;;19.80;99.90;;;;;;4953568;28;20047;-47
2022/08/17 03:15:14;;;;;;;38.25;33.65;;;19.80;99.90;;;;;;4954223;28;20035;-47
2022/08/17 03:17:40;;;;;;;39.28;35.08;;;19.80;99.90;;;;;;4953941;28;20039;-45
2022/08/17 03:20:07;;;;;;;38.17;34.28;;;19.80;99.90;;;;;;4953713;28;20032;-45
2022/08/17 03:22:45;;;;;;;38.65;34.67;;;19.70;99.90;;;;;;4953935;28;20093;-47
2022/08/17 03:25:14;;;;;;;36.50;32.80;;;19.80;99.90;;;;;;4966992;28;20070;-48
2022/08/17 03:27:40;;;;;;;37.33;33.53;;;19.70;99.90;;;;;;4972946;28;20042;-49
2022/08/17 03:30:07;;;;;;;37.63;33.83;;;19.70;99.90;;;;;;4972639;28;20041;-49
2022/08/17 03:32:38;;;;;;;39.33;35.22;;;19.70;99.90;;;;;;4955197;28;20046;-48
2022/08/17 03:35:04;;;;;;;36.05;32.35;;;19.70;99.90;;;;;;4955148;28;20121;-51
2022/08/17 03:37:30;;;;;;;35.70;32.10;;;19.70;99.90;;;;;;4972955;28;20031;-48
2022/08/17 03:39:55;;;;;;;36.17;32.35;;;19.60;99.90;;;;;;4972964;28;20126;-46
2022/08/17 03:42:25;;;;;;;36.28;32.45;;;19.60;99.90;;;;;;4972622;28;20047;-46
2022/08/17 03:44:52;;;;;;;36.10;32.33;;;19.60;99.90;;;;;;4972432;28;20031;-48
2022/08/17 03:58:36;;;;;;;35.20;31.60;;;19.50;99.90;;;;;;4972571;28;20041;-50
2022/08/17 04:01:04;;;;;;;35.40;31.80;;;19.50;99.90;;;;;;4972491;28;20394;-47
2022/08/17 04:03:30;;;;;;;34.85;31.35;;;19.50;99.90;;;;;;4972289;28;20046;-48
2022/08/17 04:05:56;;;;;;;34.28;30.85;;;19.50;99.90;;;;;;4972455;28;20090;-46
2022/08/17 04:08:21;;;;;;;35.08;31.48;;;19.50;99.90;;;;;;4972105;28;20043;-49
2022/08/17 04:10:47;;;;;;;32.55;29.33;;;19.60;99.90;;;;;;4972159;28;20038;-47
2022/08/17 04:13:13;;;;;;;33.08;29.77;;;19.60;99.90;;;;;;4971507;28;20109;-49
2022/08/17 04:15:39;;;;;;;32.25;28.77;;;19.50;99.90;;;;;;4954112;28;20047;-46
2022/08/17 04:18:06;;;;;;;33.85;30.25;;;19.60;99.90;;;;;;4952884;28;20039;-50
2022/08/17 04:20:32;;;;;;;34.40;30.75;;;19.50;99.90;;;;;;4952407;28;20047;-48
2022/08/17 04:23:13;;;;;;;34.70;31.20;;;19.50;99.90;;;;;;4970469;28;20074;-47
2022/08/17 04:25:43;;;;;;;32.28;28.77;;;19.50;99.90;;;;;;4972096;28;20042;-48
2022/08/17 04:28:08;;;;;;;34.42;30.92;;;19.50;99.90;;;;;;4971750;28;20081;-49
2022/08/17 04:30:36;;;;;;;34.15;30.55;;;19.50;99.90;;;;;;4954288;28;20038;-50
2022/08/17 04:33:09;;;;;;;34.90;31.30;;;19.50;99.90;;;;;;4954214;28;20380;-48
2022/08/17 04:35:40;;;;;;;33.60;30.20;;;19.50;99.90;;;;;;4970409;28;20529;-47
2022/08/17 04:38:08;;;;;;;34.88;30.67;;;19.60;99.90;;;;;;4971971;28;20034;-47
2022/08/17 04:43:19;;;;;;;;;;;19.50;99.90;;;;;;4968405;28;20058;-48
2022/08/17 04:45:55;;;;;;;33.05;29.55;;;19.50;99.90;;;;;;4953896;28;20377;-47
2022/08/17 04:48:21;;;;;;;32.88;29.63;;;19.50;99.90;;;;;;4968478;28;20044;-46
2022/08/17 04:50:49;;;;;;;33.55;30.15;;;19.50;99.90;;;;;;4971178;28;20046;-47
2022/08/17 04:53:15;;;;;;;32.33;29.02;;;19.40;99.90;;;;;;4954415;28;20039;-48
2022/08/17 04:55:42;;;;;;;33.05;29.55;;;19.60;99.90;;;;;;4971566;28;20125;-48
2022/08/17 04:58:08;;;;;;;33.53;30.23;;;19.50;99.90;;;;;;4953007;28;20098;-48
2022/08/17 05:00:35;;;;;;;33.17;29.77;;;19.40;99.90;;;;;;4952178;28;20053;-47
2022/08/17 05:03:00;;;;;;;34.92;29.75;;;19.40;99.90;;;;;;4952322;28;20070;-50
2022/08/17 05:05:35;;;;;;;31.85;28.60;;;19.50;99.90;;;;;;4952327;28;20063;-49
2022/08/17 05:08:02;;;;;;;32.28;28.95;;;19.50;99.90;;;;;;4952309;28;20039;-50
2022/08/17 05:10:30;;;;;;;32.55;29.23;;;19.50;99.90;;;;;;4952222;28;20491;-49
2022/08/17 05:13:04;;;;;;;32.55;29.27;;;19.40;99.90;;;;;;4952159;28;20679;-46
2022/08/17 05:15:31;;;;;;;34.03;30.50;;;19.40;99.90;;;;;;4952275;28;20126;-49
2022/08/17 05:17:57;;;;;;;33.72;30.25;;;19.40;99.90;;;;;;4967091;28;20035;-46
2022/08/17 05:20:23;;;;;;;33.25;29.80;;;19.50;99.90;;;;;;4951923;28;20058;-50
2022/08/17 05:22:51;;;;;;;33.35;29.85;;;19.40;99.90;;;;;;4951996;28;20075;-47
2022/08/17 05:25:19;;;;;;;35.35;31.83;;;19.40;99.90;;;;;;4964271;28;20050;-48
2022/08/17 05:27:44;;;;;;;35.92;32.22;;;19.40;99.90;;;;;;4975063;28;20053;-46
2022/08/17 05:30:11;;;;;;;34.08;30.73;;;19.50;99.90;;;;;;4975144;28;20042;-49
2022/08/17 05:32:37;;;;;;;35.40;31.90;;;19.50;99.90;;;;;;4975215;28;20089;-49
2022/08/17 05:35:03;;;;;;;35.20;31.48;;;19.40;99.90;;;;;;4974857;28;20050;-48
2022/08/17 05:37:29;;;;;;;34.28;30.83;;;19.40;99.90;;;;;;4974945;28;20042;-51
2022/08/17 05:39:55;;;;;;;33.50;30.13;;;19.30;99.90;;;;;;4975096;28;20043;-49
2022/08/17 05:42:21;;;;;;;33.83;30.52;;;19.40;99.90;;;;;;4974563;28;20050;-49
2022/08/17 05:44:46;;;;;;;37.10;33.20;;;19.50;99.90;;;;;;4957430;28;20049;-48
2022/08/17 05:47:12;;;;;;;35.08;31.55;;;19.40;99.90;;;;;;4960873;28;20078;-47
2022/08/17 05:49:38;;;;;;;35.63;32.03;;;19.40;99.90;;;;;;4955508;28;20403;-48
2022/08/17 05:52:14;;;;;;;34.25;30.65;;;19.50;99.90;;;;;;4960004;28;20069;-46
2022/08/17 05:55:06;;;;;;;34.03;30.60;;;19.60;99.90;;;;;;4958458;28;20403;-48
2022/08/17 05:57:39;;;;;;;33.95;30.70;;;19.60;99.90;;;;;;4961908;28;20038;-50
2022/08/17 06:00:16;;;;;;;33.50;30.20;;;19.60;99.90;;;;;;4961862;28;20420;-48
2022/08/17 06:02:51;;;;;;;34.20;30.60;;;19.60;99.90;;;;;;4963906;28;20098;-47
2022/08/17 06:05:36;;;;;;;32.53;29.30;;;19.60;99.90;;;;;;4955479;28;20039;-46
2022/08/17 06:08:17;;;;;;;32.40;29.27;;;19.60;99.90;;;;;;4960529;28;20047;-49
2022/08/17 06:11:01;;;;;;;32.70;29.23;;;19.70;99.90;;;;;;4960538;28;20039;-47
2022/08/17 06:14:04;;;;;;;31.52;28.50;;;19.60;99.90;;;;;;4961000;28;20047;-45
2022/08/17 06:16:38;;;;;;;32.35;29.05;;;19.70;99.90;;;;;;4960995;28;20047;-48
2022/08/17 06:19:26;;;;;;;31.70;28.55;;;19.70;99.90;;;;;;4963625;28;20046;-48
2022/08/17 06:21:53;;;;;;;32.72;29.60;;;19.70;99.90;;;;;;4961745;28;20077;-48
2022/08/17 06:24:26;;;;;;;32.50;29.45;;;19.70;99.90;;;;;;4960743;28;20472;-46
2022/08/17 06:26:56;;;;;;;34.67;31.35;;;19.70;99.90;;;;;;4961498;28;20368;-49
2022/08/17 06:29:40;;;;;;;36.65;32.67;;;19.60;99.90;;;;;;4964057;28;20047;-46
2022/08/17 06:32:08;;;;;;;34.78;31.38;;;19.60;99.90;;;;;;4964141;28;20046;-47
2022/08/17 06:34:36;;;;;;;35.75;32.05;;;19.60;99.90;;;;;;4965505;28;20066;-47
2022/08/17 06:37:38;;;;;;;36.20;32.60;;;19.50;99.90;;;;;;4963029;28;20039;-49
2022/08/17 06:40:25;;;;;;;37.80;33.25;;;19.60;99.90;;;;;;4961826;28;20043;-47
2022/08/17 06:43:11;;;;;;;37.03;33.22;;;19.50;99.90;;;;;;4961285;28;20039;-50
2022/08/17 06:45:48;;;;;;;39.13;34.92;;;19.40;99.90;;;;;;4961146;28;20051;-47
2022/08/17 06:48:25;;;;;;;40.83;36.58;;;19.40;99.90;;;;;;4945039;28;20038;-48
2022/08/17 06:50:59;;;;;;;41.92;37.60;;;19.30;99.90;;;;;;4961619;28;20031;-46
2022/08/17 06:53:39;;;;;;;42.20;37.90;;;19.40;99.90;;;;;;4961634;28;20050;-48
2022/08/17 06:56:18;;;;;;;41.95;37.53;;;19.30;99.90;;;;;;4961246;28;20030;-48
2022/08/17 06:58:44;;;;;;;40.40;36.40;;;19.40;99.90;;;;;;4959396;28;20125;-46
2022/08/17 07:01:25;;;;;;;41.90;37.63;;;19.40;99.90;;;;;;4961495;28;20519;-51
2022/08/17 07:04:12;;;;;;;42.33;37.92;;;19.40;99.90;;;;;;4960423;28;20517;-48
2022/08/17 07:06:47;;;;;;;42.25;38.05;;;19.30;99.90;;;;;;4961200;28;20042;-47
2022/08/17 07:09:32;;;;;;;42.45;37.80;;;19.30;99.90;;;;;;4962073;28;20136;-46
2022/08/17 07:12:02;;;;;;;40.88;36.47;;;19.50;99.90;;;;;;4962045;28;20598;-48
2022/08/17 07:14:50;;;;;;;41.42;37.17;;;19.50;99.90;;;;;;4962068;28;20453;-47
2022/08/17 07:17:18;;;;;;;39.72;35.53;;;19.40;99.90;;;;;;4959357;28;20360;-49
2022/08/17 07:19:46;;;;;;;41.80;37.50;;;19.40;99.90;;;;;;4962076;28;20074;-46
2022/08/17 07:22:40;;;;;;;42.22;37.42;;;19.40;99.90;;;;;;4962578;28;20042;-45
2022/08/17 07:25:11;;;;;;;40.70;36.58;;;19.50;99.90;;;;;;4960993;28;20120;-45
2022/08/17 07:27:44;;;;;;;40.42;36.25;;;19.50;99.90;;;;;;4960632;28;20140;-46
2022/08/17 07:30:10;;;;;;;40.85;36.65;;;19.50;99.90;;;;;;4961922;28;20121;-46
2022/08/17 07:32:35;;;;;;;40.03;36.00;;;19.50;99.90;;;;;;4961243;28;20126;-46
2022/08/17 07:35:15;;;;;;;38.22;34.20;;;19.70;99.90;;;;;;4961042;28;20036;-49
2022/08/17 07:37:54;;;;;;;38.10;34.13;;;19.60;99.90;;;;;;4943793;28;20075;-49
2022/08/17 07:40:27;;;;;;;37.65;33.95;;;19.60;99.90;;;;;;4961407;28;20038;-48
2022/08/17 07:43:20;;;;;;;38.25;34.22;;;19.70;99.90;;;;;;4959526;28;20057;-48
2022/08/17 07:48:38;;;;;;;40.03;35.88;;;19.60;99.90;;;;;;4958918;28;20070;-47
2022/08/17 07:51:19;;;;;;;39.10;34.92;;;19.70;99.90;;;;;;4959013;28;20046;-48
2022/08/17 07:53:46;;;;;;;40.35;35.97;;;19.70;99.90;;;;;;4960965;28;20094;-49
2022/08/17 07:56:33;;;;;;;42.00;37.60;;;19.70;99.90;;;;;;4959762;28;20360;-45
2022/08/17 07:59:16;;;;;;;41.40;36.92;;;19.80;99.90;;;;;;4957211;28;20545;-44
2022/08/17 08:01:59;;;;;;;43.13;38.47;;;19.90;99.90;;;;;;4954464;28;20047;-48
2022/08/17 08:04:35;;;;;;;42.65;38.20;;;19.90;99.90;;;;;;4958428;28;20497;-45
2022/08/17 08:07:07;;;;;;;42.17;37.70;;;20.20;99.90;;;;;;4959830;28;20414;-45
2022/08/17 08:10:04;;;;;;;41.33;37.00;;;20.10;99.90;;;;;;4962367;28;20043;-48
2022/08/17 08:12:37;;;;;;;40.30;35.15;;;20.20;99.90;;;;;;4954434;28;20138;-46
2022/08/17 08:15:10;;;;;;;39.08;35.17;;;20.10;99.90;;;;;;4962571;28;20483;-48
2022/08/17 08:17:55;;;;;;;39.78;35.60;;;20.20;99.90;;;;;;4961572;28;20049;-50
2022/08/17 08:20:39;;;;;;;39.08;35.03;;;20.30;99.90;;;;;;4962520;28;20053;-49
2022/08/17 08:23:20;;;;;;;38.95;34.85;;;20.40;99.90;;;;;;4961414;28;20045;-48
2022/08/17 08:26:06;;;;;;;36.67;32.95;;;20.30;99.90;;;;;;4961480;28;20051;-47
2022/08/17 08:29:00;;;;;;;38.20;34.08;;;20.20;99.90;;;;;;4961389;28;20047;-46
2022/08/17 08:31:56;;;;;;;39.00;32.83;;;20.10;99.90;;;;;;4962819;28;20035;-49
2022/08/17 08:34:36;;;;;;;35.92;32.28;;;20.20;99.90;;;;;;4939569;28;20142;-46
2022/08/17 08:37:07;;;;;;;37.10;33.17;;;20.20;99.90;;;;;;4960462;28;20043;-48
2022/08/17 08:39:53;;;;;;;37.80;33.83;;;20.10;99.90;;;;;;4959653;28;20038;-50
2022/08/17 08:42:51;;;;;;;41.10;34.83;;;20.20;99.90;;;;;;4960275;28;20031;-47
2022/08/17 08:45:57;;;;;;;38.42;34.45;;;20.10;99.90;;;;;;4942445;28;20038;-47
2022/08/17 08:48:42;;;;;;;38.08;34.17;;;20.30;99.90;;;;;;4958706;28;20450;-48
2022/08/17 08:51:21;;;;;;;38.05;34.10;;;20.40;99.90;;;;;;4960513;28;20026;-46
2022/08/17 08:53:56;;;;;;;40.10;35.90;;;20.30;99.90;;;;;;4959231;28;20057;-46
2022/08/17 08:56:51;;;;;;;37.70;33.70;;;20.40;99.90;;;;;;4960609;28;20038;-48
2022/08/17 09:00:03;;;;;;;38.70;34.70;;;20.60;99.90;;;;;;4958683;28;20130;-46
2022/08/17 09:03:10;;;;;;;40.20;35.67;;;20.80;99.90;;;;;;4907269;28;20047;-49
2022/08/17 09:05:55;;;;;;;38.38;34.35;;;20.90;99.90;;;;;;4959828;28;20054;-47
2022/08/17 09:08:26;;;;;;;37.08;33.20;;;20.90;99.90;;;;;;4961298;28;20161;-48
2022/08/17 09:11:08;;;;;;;36.53;32.78;;;21.00;99.90;;;;;;4960889;28;20487;-48
2022/08/17 09:13:49;;;;;;;36.33;32.47;;;21.10;99.90;;;;;;4962324;28;20051;-47
2022/08/17 09:16:23;;;;;;;35.10;31.23;;;21.10;99.90;;;;;;4961999;28;20078;-50
2022/08/17 09:18:57;;;;;;;34.78;31.10;;;21.20;99.90;;;;;;4960323;28;20046;-48
2022/08/17 09:21:34;;;;;;;34.63;31.05;;;21.30;99.90;;;;;;4957827;28;20053;-46
2022/08/17 09:24:25;;;;;;;34.33;30.65;;;21.40;99.90;;;;;;4960638;28;20579;-46
2022/08/17 09:26:51;;;;;;;32.58;29.38;;;21.40;99.90;;;;;;4961438;28;20035;-48
2022/08/17 09:29:17;;;;;;;33.55;30.15;;;21.40;99.90;;;;;;4961647;28;20050;-47
2022/08/17 09:31:56;;;;;;;33.67;30.27;;;21.50;99.90;;;;;;4919517;28;20042;-46
2022/08/17 09:34:39;;;;;;;32.30;29.08;;;21.50;99.90;;;;;;4956163;28;20051;-50
2022/08/17 09:37:24;;;;;;;31.85;28.55;;;21.50;99.90;;;;;;4958957;28;20487;-50
2022/08/17 09:40:25;;;;;;;32.38;29.08;;;21.40;99.90;;;;;;4958868;28;20114;-50
2022/08/17 09:43:13;;;;;;;31.73;28.58;;;21.50;99.90;;;;;;4958630;28;20074;-45
2022/08/17 09:45:50;;;;;;;31.85;28.65;;;21.50;99.90;;;;;;4951166;28;20503;-49
2022/08/17 09:48:35;;;;;;;30.63;27.52;;;21.50;99.90;;;;;;4957752;28;20073;-48
2022/08/17 09:51:33;;;;;;;31.95;28.75;;;21.70;99.90;;;;;;4957187;28;20035;-45
2022/08/17 09:53:59;;;;;;;31.92;28.55;;;21.60;99.90;;;;;;4931313;28;20061;-46
2022/08/17 09:56:35;;;;;;;32.42;29.17;;;21.70;99.90;;;;;;4958578;28;20042;-47
2022/08/17 09:59:06;;;;;;;34.53;30.95;;;21.80;99.90;;;;;;4957473;28;20501;-49
2022/08/17 10:01:41;;;;;;;33.10;29.70;;;21.60;99.90;;;;;;4957378;28;20035;-48
2022/08/17 10:04:22;;;;;;;33.80;30.33;;;21.70;99.90;;;;;;4958061;28;20030;-46
2022/08/17 10:06:57;;;;;;;34.38;30.67;;;21.70;99.90;;;;;;4957927;28;20041;-46
2022/08/17 10:09:32;;;;;;;33.80;30.33;;;21.70;99.90;;;;;;4957717;28;20078;-46
2022/08/17 10:12:39;;;;;;;34.88;31.30;;;21.60;99.90;;;;;;4957617;28;20035;-45
2022/08/17 10:15:21;;;;;;;32.72;29.25;;;21.70;99.90;;;;;;4949859;28;20487;-48
2022/08/17 10:17:55;;;;;;;33.35;30.02;;;21.80;99.90;;;;;;4960665;28;20035;-48
2022/08/17 10:20:39;;;;;;;33.15;29.73;;;21.80;99.90;;;;;;4957376;28;20471;-49
2022/08/17 10:26:19;;;;;;;31.57;28.47;;;22.00;99.90;;;;;;4961268;28;20046;-49
2022/08/17 10:29:00;;;;;;;31.55;28.35;;;22.30;99.90;;;;;;4961357;28;20137;-47
2022/08/17 10:31:47;;;;;;;31.83;28.63;;;22.40;99.90;;;;;;4962755;28;20046;-46
2022/08/17 10:34:12;;;;;;;28.50;25.73;;;22.60;99.90;;;;;;4961952;28;20062;-47
2022/08/17 10:36:51;;;;;;;28.35;24.65;;;22.80;99.90;;;;;;4962029;28;20120;-48
2022/08/17 10:39:35;;;;;;;27.73;24.83;;;22.80;99.90;;;;;;4962272;28;20038;-47
2022/08/17 10:42:03;;;;;;;;;;;22.90;99.90;;;;;;4961305;28;20078;-50
2022/08/17 10:44:55;;;;;;;28.80;25.58;;;22.70;99.90;;;;;;4962102;28;20000;-48
2022/08/17 10:47:25;;;;;;;25.98;23.23;;;22.80;99.90;;;;;;4962475;28;20050;-47
2022/08/17 10:49:56;;;;;;;27.48;23.98;;;23.20;99.90;;;;;;4959791;28;20043;-47
2022/08/17 10:52:21;;;;;;;26.98;24.27;;;23.20;99.90;;;;;;4959219;28;20061;-47
2022/08/17 10:54:50;;;;;;;26.33;23.77;;;23.10;99.90;;;;;;4960617;28;20039;-49
2022/08/17 10:57:31;;;;;;;27.42;24.73;;;23.10;99.90;;;;;;4960043;28;20035;-50
2022/08/17 11:00:14;;;;;;;28.25;25.35;;;23.00;99.90;;;;;;4961597;28;20027;-47
2022/08/17 11:02:47;;;;;;;27.58;24.75;;;23.00;99.90;;;;;;4961269;28;20038;-46
2022/08/17 11:05:41;;;;;;;28.98;26.13;;;23.10;99.90;;;;;;4961087;28;20078;-47
2022/08/17 11:08:24;;;;;;;28.85;25.50;;;23.10;99.90;;;;;;4960469;28;20058;-50
2022/08/17 11:10:56;;;;;;;27.73;25.00;;;23.40;99.90;;;;;;4960184;28;20031;-45
2022/08/17 11:13:57;;;;;;;28.23;25.52;;;23.50;99.90;;;;;;4960188;28;20043;-48
2022/08/17 11:16:53;;;;;;;30.20;27.13;;;23.60;99.90;;;;;;4961829;28;20043;-45
2022/08/17 11:19:43;;;;;;;29.73;26.73;;;23.40;99.90;;;;;;4959671;28;20031;-47
2022/08/17 11:22:32;;;;;;;30.52;27.40;;;23.50;99.90;;;;;;4961922;28;20031;-49
2022/08/17 11:25:13;;;;;;;28.38;25.65;;;23.60;99.90;;;;;;4959442;28;20063;-48
2022/08/17 11:27:40;;;;;;;27.65;24.95;;;23.80;99.90;;;;;;4960988;28;20039;-47
2022/08/17 11:30:12;;;;;;;30.17;27.27;;;23.70;99.90;;;;;;4961175;28;20376;-49
2022/08/17 11:32:48;;;;;;;29.70;26.90;;;23.70;99.90;;;;;;4960266;28;20039;-46
2022/08/17 11:35:20;;;;;;;29.88;26.83;;;23.70;99.90;;;;;;4959919;28;20038;-48
2022/08/17 11:37:58;;;;;;;30.27;27.17;;;23.80;99.90;;;;;;4961621;28;20035;-48
2022/08/17 11:41:01;;;;;;;29.90;26.83;;;23.80;99.90;;;;;;4957938;28;20054;-46
2022/08/17 11:43:57;;;;;;;27.98;25.17;;;23.90;99.90;;;;;;4960829;28;20046;-47
2022/08/17 11:52:48;;;;;;;28.13;25.33;;;23.90;99.90;;;;;;4957910;28;20673;-48
2022/08/17 11:55:31;;;;;;;27.52;24.67;;;24.00;99.90;;;;;;4958965;28;20058;-47
2022/08/17 11:58:20;;;;;;;28.10;24.50;;;24.10;99.90;;;;;;4959637;28;20043;-50
2022/08/17 12:00:45;;;;;;;25.98;23.33;;;24.20;99.90;;;;;;4941123;28;20132;-48
2022/08/17 12:03:32;;;;;;;26.42;23.67;;;24.10;99.90;;;;;;4957563;28;20137;-46
2022/08/17 12:06:41;;;;;;;25.73;22.98;;;24.00;99.90;;;;;;4956696;28;20598;-49
2022/08/17 12:09:18;;;;;;;25.30;22.60;;;24.10;99.90;;;;;;4933140;28;20046;-48
2022/08/17 12:11:52;;;;;;;23.48;20.98;;;24.10;99.90;;;;;;4939453;28;20045;-47
2022/08/17 12:14:25;;;;;;;22.90;20.70;;;24.10;99.90;;;;;;4961450;28;20398;-48
2022/08/17 12:17:03;;;;;;;22.60;20.10;;;24.30;99.90;;;;;;4956569;28;20035;-48
2022/08/17 12:19:32;;;;;;;22.88;20.58;;;24.30;99.90;;;;;;4951037;28;20036;-47
2022/08/17 12:22:12;;;;;;;23.08;20.67;;;24.30;99.90;;;;;;4951228;28;20043;-46
2022/08/17 12:24:48;;;;;;;25.38;22.67;;;24.30;99.90;;;;;;4953227;28;20051;-49
2022/08/17 12:27:22;;;;;;;24.05;21.10;;;24.30;99.90;;;;;;4951986;28;20039;-49
2022/08/17 12:29:48;;;;;;;24.55;21.10;;;24.30;99.90;;;;;;4951800;28;20039;-46
2022/08/17 12:32:19;;;;;;;23.85;21.13;;;24.30;99.90;;;;;;4951592;28;20035;-48
2022/08/17 12:34:47;;;;;;;25.83;23.23;;;24.30;99.90;;;;;;4935135;28;20439;-48
2022/08/17 12:37:23;;;;;;;25.75;23.05;;;24.10;99.90;;;;;;4934920;28;20043;-50
2022/08/17 12:40:18;;;;;;;24.95;22.35;;;24.20;99.90;;;;;;4951991;28;20388;-48
2022/08/17 12:42:55;;;;;;;25.85;22.55;;;24.00;99.90;;;;;;4952831;28;20047;-45
2022/08/17 12:45:38;;;;;;;24.58;22.08;;;24.00;99.90;;;;;;4950311;28;20181;-46
2022/08/17 12:48:21;;;;;;;24.35;21.77;;;23.90;99.90;;;;;;4950476;28;20043;-48
2022/08/17 12:50:49;;;;;;;24.30;21.90;;;24.00;99.90;;;;;;4951380;28;20129;-49
2022/08/17 12:53:20;;;;;;;25.95;23.17;;;23.90;99.90;;;;;;4952238;28;20035;-48
2022/08/17 12:55:48;;;;;;;25.15;22.45;;;23.80;99.90;;;;;;4970711;28;20041;-48
2022/08/17 12:58:30;;;;;;;26.10;23.50;;;23.80;99.90;;;;;;4970541;28;20038;-51
2022/08/17 13:01:04;;;;;;;24.42;21.85;;;23.70;99.90;;;;;;4970427;28;20050;-48
2022/08/17 13:03:48;;;;;;;25.55;22.80;;;23.60;99.90;;;;;;4970698;28;20046;-45
2022/08/17 13:06:30;;;;;;;25.38;22.70;;;23.60;99.90;;;;;;4970547;28;20042;-46
2022/08/17 13:09:17;;;;;;;24.60;21.67;;;23.50;99.90;;;;;;4970939;28;20042;-48
2022/08/17 13:11:52;;;;;;;26.85;24.10;;;23.60;99.90;;;;;;4970577;28;20035;-47
2022/08/17 13:14:18;;;;;;;27.52;24.58;;;23.50;99.90;;;;;;4970217;28;21302;-46
2022/08/17 13:16:58;;;;;;;28.58;25.55;;;23.40;99.90;;;;;;4970825;28;20046;-45
2022/08/17 13:19:27;;;;;;;30.77;27.02;;;23.20;99.90;;;;;;4970401;28;20045;-47
2022/08/17 13:21:55;;;;;;;30.10;26.83;;;23.10;99.90;;;;;;4970841;28;20066;-45
2022/08/17 13:24:30;;;;;;;29.60;26.53;;;22.90;99.90;;;;;;4914243;28;1132426;-46
2022/08/17 13:27:02;;;;;;;29.48;26.27;;;22.70;99.90;;;;;;4971164;28;20055;-49
2022/08/17 13:29:43;;;;;;;30.50;27.50;;;22.50;99.90;;;;;;4971535;28;20054;-48
2022/08/17 13:32:10;;;;;;;29.63;26.48;;;22.50;99.90;;;;;;4971353;28;20433;-48